Surface observations / UK / EGBB

Quebec | Canada | USA | France | UK | Europe | Elsewhere

Display: Info & Location for EGBB | Help decoding METAR

EGBB BIRMINGHAM AIRPORT -- UK
Raw surface observations for station EGBB
EGBB 230720Z 02009KT 6000 FEW008 17/14 Q1023=
EGBB 230650Z 02008KT 6000 FEW007 16/14 Q1023=
EGBB 230620Z 03009KT 6000 BKN006 16/14 Q1023=
EGBB 230550Z 03007KT 360V070 6000 BKN005 15/14 Q1023=
EGBB 230520Z 02006KT 6000 BKN006 15/14 Q1024=
EGBB 230450Z 02007KT 6000 BKN006 15/14 Q1024=
EGBB 230420Z 02008KT 6000 BKN006 15/14 Q1024=
EGBB 230350Z 01007KT 6000 BKN006 15/14 Q1024=
EGBB 230320Z 01005KT 7000 BKN006 15/14 Q1024=
EGBB 230250Z 01005KT 6000 BKN006 15/14 Q1024=
EGBB 230220Z 03006KT 7000 BKN006 15/14 Q1024=
EGBB 230150Z AUTO 03006KT 6000 OVC004/// 15/14 Q1024=
EGBB 230120Z AUTO 05006KT 350V070 7000 BKN004/// 16/15 Q1024=
EGBB 230050Z AUTO 05005KT 8000 FEW005/// 16/15 Q1024=
EGBB 230020Z 06006KT 9000 FEW007 16/15 Q1024=
EGBB 222350Z 07005KT 040V100 CAVOK 17/15 Q1024=
EGBB 222320Z 07005KT CAVOK 17/16 Q1024=
EGBB 222250Z 09006KT CAVOK 18/16 Q1024=
EGBB 222220Z 08007KT CAVOK 19/16 Q1024=
EGBB 222150Z 08008KT CAVOK 19/16 Q1024=
EGBB 222120Z 07007KT CAVOK 20/16 Q1024=
EGBB 222050Z 04005KT CAVOK 21/14 Q1024=
EGBB 222020Z 05007KT 010V070 CAVOK 22/15 Q1024=
EGBB 221950Z 05008KT CAVOK 22/15 Q1024=
EGBB 221920Z 05008KT 9999 FEW045 23/15 Q1023=
EGBB 221850Z 06008KT 9999 FEW045 24/14 Q1023=
EGBB 221820Z 05006KT 9999 FEW047 25/14 Q1023=
EGBB 221750Z 04008KT 9999 FEW049 25/14 Q1023=
EGBB 221720Z 05008KT 030V090 9999 FEW048 25/13 Q1023=
EGBB 221650Z 05007KT 010V090 9999 FEW048 25/13 Q1023=
EGBB 221620Z 05009KT 020V100 9999 SCT047 25/13 Q1023=
EGBB 221550Z 02006KT 310V060 9999 FEW047 25/14 Q1023=
EGBB 221520Z 06007KT 020V100 9999 FEW048 25/13 Q1023=
EGBB 221450Z 02006KT 350V050 9999 FEW044 25/14 Q1023=
EGBB 221420Z 05005KT 360V110 9999 FEW045 24/13 Q1023=
EGBB 221350Z 04006KT 360V110 9999 FEW045 24/13 Q1024=
EGBB 221320Z 04007KT 350V100 9999 SCT044 24/14 Q1024=
EGBB 221250Z 02006KT 310V080 9999 SCT044 24/13 Q1024=
EGBB 221220Z 01009KT 9999 FEW040 23/14 Q1024=
EGBB 221150Z 36006KT 310V040 9999 SCT036 23/13 Q1024=
EGBB 221120Z 04005KT 360V080 9999 BKN036 22/14 Q1024=
EGBB 221050Z VRB06KT 9999 SCT033 23/14 Q1024=
EGBB 221020Z 36004KT 310V100 9999 SCT029 22/15 Q1024=
EGBB 220950Z 05005KT 350V120 9999 FEW027 21/15 Q1024=
EGBB 220920Z VRB03KT 9999 FEW024 21/15 Q1024=
EGBB 220850Z 01004KT 310V040 CAVOK 20/15 Q1024=
EGBB 220820Z VRB03KT CAVOK 20/15 Q1024=
EGBB 220750Z 36004KT 310V050 CAVOK 19/14 Q1024=
EGBB 220720Z 02005KT 350V060 CAVOK 18/14 Q1024=